Terminal Aerodrome Forecast
Issued by NWS

Home | Current Version | Previous Version | Text Only | Print | Product List | Glossary On
Versions: 1 2 3 4 5 6 7 8 9 10 11 12 13 14 15
000
FTUS41 KBOX 181120
TAFBED
TAF
KBED 181120Z 1812/1912 17004KT P6SM VCSH OVC050
     FM181400 16005KT P6SM -SHRA OVC050
     FM181700 17008KT P6SM -SHRA VCTS OVC030CB
     FM181900 17008KT 2SM -SHRA BR VCTS OVC010CB
     FM190100 18008KT 3SM -SHRA BR OVC015
     FM190600 20007KT 3SM BR VCSH OVC030
     FM190700 19006KT 3SM BR BKN030=

USA.gov is the U.S. government's official web portal to all federal, state and local government web resources and services.